createdAt,value
2018-06-18T00:00:17.249Z,98377.68
2018-06-18T00:01:20.677Z,98377.68
2018-06-18T00:02:24.411Z,98382.25
2018-06-18T00:03:27.299Z,98383.27
2018-06-18T00:04:30.720Z,98383.63
2018-06-18T00:05:33.829Z,98383.64
2018-06-18T00:06:36.654Z,98385.34
2018-06-18T00:07:39.623Z,98384.89
2018-06-18T00:08:42.426Z,98389.56
2018-06-18T00:09:46.229Z,98391.61
2018-06-18T00:10:56.402Z,98394.80
2018-06-18T00:11:59.228Z,98391.15
2018-06-18T00:13:02.110Z,98389.88
2018-06-18T00:14:06.158Z,98384.95
2018-06-18T00:15:08.980Z,98381.06
2018-06-18T00:16:11.787Z,98376.72
2018-06-18T00:17:17.057Z,98376.06
2018-06-18T00:18:19.999Z,98383.11
2018-06-18T00:19:22.847Z,98384.50
2018-06-18T00:20:25.700Z,98382.59
2018-06-18T00:21:28.669Z,98380.98
2018-06-18T00:22:32.424Z,98374.02
2018-06-18T00:23:35.560Z,98376.40
2018-06-18T00:24:39.453Z,98375.84
2018-06-18T00:25:42.355Z,98375.73
2018-06-18T00:26:45.785Z,98375.95
2018-06-18T00:27:48.839Z,98375.03
2018-06-18T00:28:51.649Z,98371.48
2018-06-18T00:29:58.269Z,98367.49
2018-06-18T00:31:01.109Z,98375.94
2018-06-18T00:32:03.953Z,98379.37
2018-06-18T00:33:06.755Z,98375.39
2018-06-18T00:34:09.558Z,98379.27
2018-06-18T00:35:12.369Z,98382.34
2018-06-18T00:36:15.463Z,98384.86
2018-06-18T00:37:18.249Z,98381.66
2018-06-18T00:38:21.592Z,98375.17
2018-06-18T00:39:24.605Z,98380.66
2018-06-18T00:40:27.485Z,98380.16
2018-06-18T00:41:30.495Z,98380.97
2018-06-18T00:42:33.619Z,98382.09
2018-06-18T00:43:36.437Z,98386.91
2018-06-18T00:44:39.256Z,98384.39
2018-06-18T00:45:42.050Z,98392.37
2018-06-18T00:46:44.866Z,98394.56
2018-06-18T00:47:47.682Z,98398.22
2018-06-18T00:48:52.433Z,98395.38
2018-06-18T00:49:55.245Z,98392.87
2018-06-18T00:50:58.082Z,98396.40
2018-06-18T00:52:00.936Z,98388.41
2018-06-18T00:53:03.812Z,98387.05
2018-06-18T00:54:06.591Z,98378.59
2018-06-18T00:55:09.783Z,98376.98
2018-06-18T00:56:13.703Z,98383.73
2018-06-18T00:57:16.816Z,98385.55
2018-06-18T00:58:19.610Z,98383.17
2018-06-18T00:59:22.472Z,98379.30
2018-06-18T01:00:25.391Z,98375.85
2018-06-18T01:01:28.600Z,98373.46
2018-06-18T01:02:31.406Z,98372.67
2018-06-18T01:03:35.361Z,98373.12
2018-06-18T01:04:38.152Z,98372.88
2018-06-18T01:05:40.939Z,98365.83
2018-06-18T01:06:43.734Z,98365.47
2018-06-18T01:07:46.918Z,98364.33
2018-06-18T01:08:49.751Z,98369.67
2018-06-18T01:09:53.348Z,98364.44
2018-06-18T01:10:56.165Z,98369.90
2018-06-18T01:11:58.979Z,98370.67
2018-06-18T01:13:01.832Z,98365.91
2018-06-18T01:14:04.964Z,98359.86
2018-06-18T01:15:07.779Z,98362.48
2018-06-18T01:16:10.593Z,98352.01
2018-06-18T01:17:13.384Z,98363.20
2018-06-18T01:18:16.152Z,98357.95
2018-06-18T01:19:18.951Z,98366.16
2018-06-18T01:20:23.079Z,98365.58
2018-06-18T01:21:25.874Z,98366.72
2018-06-18T01:22:28.688Z,98364.45
2018-06-18T01:23:31.458Z,98365.47
2018-06-18T01:24:35.388Z,98360.47
2018-06-18T01:25:39.047Z,98358.50
2018-06-18T01:26:42.319Z,98359.52
2018-06-18T01:27:45.110Z,98360.89
2018-06-18T01:28:47.918Z,98363.41
2018-06-18T01:29:50.759Z,98351.64
2018-06-18T01:30:53.566Z,98352.00
2018-06-18T01:31:57.247Z,98346.38
2018-06-18T01:33:00.420Z,98349.36
2018-06-18T01:34:03.207Z,98350.50
2018-06-18T01:35:06.010Z,98345.27
2018-06-18T01:36:08.778Z,98348.23
2018-06-18T01:37:11.542Z,98344.37
2018-06-18T01:38:14.308Z,98332.05
2018-06-18T01:39:17.627Z,98329.42
2018-06-18T01:40:20.422Z,98330.88
2018-06-18T01:41:23.276Z,98333.06
2018-06-18T01:42:26.052Z,98333.97
2018-06-18T01:43:28.822Z,98329.20
2018-06-18T01:44:31.577Z,98329.98
2018-06-18T01:45:34.793Z,98332.95
2018-06-18T01:46:38.877Z,98332.15
2018-06-18T01:47:42.541Z,98336.70
2018-06-18T01:48:45.267Z,98335.33
2018-06-18T01:49:48.053Z,98335.09
2018-06-18T01:50:50.843Z,98336.92
2018-06-18T01:51:55.223Z,98335.77
2018-06-18T01:52:58.615Z,98330.30
2018-06-18T01:54:01.462Z,98336.80
2018-06-18T01:55:04.232Z,98339.20
2018-06-18T01:56:07.024Z,98339.33
2018-06-18T01:57:09.801Z,98340.13
2018-06-18T01:58:13.447Z,98345.61
2018-06-18T01:59:16.199Z,98347.20
2018-06-18T02:00:18.975Z,98347.20
2018-06-18T02:01:21.777Z,98350.53
2018-06-18T02:02:26.644Z,98358.05
2018-06-18T02:03:29.409Z,98353.63
2018-06-18T02:04:32.649Z,98354.41
2018-06-18T02:05:36.023Z,98355.89
2018-06-18T02:06:38.815Z,98353.16
2018-06-18T02:07:42.190Z,98351.55
2018-06-18T02:08:44.953Z,98349.05
2018-06-18T02:09:47.742Z,98359.19
2018-06-18T02:10:51.124Z,98356.00
2018-06-18T02:11:53.854Z,98352.57
2018-06-18T02:12:56.641Z,98358.41
2018-06-18T02:13:59.442Z,98361.94
2018-06-18T02:15:02.240Z,98367.65
2018-06-18T02:16:05.037Z,98367.88
2018-06-18T02:17:08.189Z,98372.34
2018-06-18T02:18:10.992Z,98367.19
2018-06-18T02:19:13.827Z,98369.36
2018-06-18T02:20:16.577Z,98370.84
2018-06-18T02:21:19.366Z,98366.26
2018-06-18T02:22:22.241Z,98366.59
2018-06-18T02:23:25.443Z,98362.95
2018-06-18T02:24:29.447Z,98367.06
2018-06-18T02:25:32.240Z,98368.45
2018-06-18T02:26:35.020Z,98367.75
2018-06-18T02:27:42.600Z,98363.77
2018-06-18T02:28:50.356Z,98357.39
2018-06-18T02:29:58.450Z,98355.10
2018-06-18T02:31:06.067Z,98358.27
2018-06-18T02:32:13.802Z,98360.77
2018-06-18T02:33:21.454Z,98364.22
2018-06-18T02:34:29.031Z,98366.61
2018-06-18T02:35:37.264Z,98365.36
2018-06-18T02:36:45.022Z,98361.59
2018-06-18T02:37:52.870Z,98359.98
2018-06-18T02:39:00.687Z,98362.37
2018-06-18T02:40:08.330Z,98355.30
2018-06-18T02:41:11.314Z,98356.45
2018-06-18T02:42:14.482Z,98357.91
2018-06-18T02:43:19.078Z,98357.56
2018-06-18T02:44:21.856Z,98360.08
2018-06-18T02:45:24.624Z,98358.73
2018-06-18T02:46:27.374Z,98361.35
2018-06-18T02:47:30.174Z,98358.03
2018-06-18T02:48:33.427Z,98363.63
2018-06-18T02:49:36.191Z,98359.09
2018-06-18T02:50:38.970Z,98358.52
2018-06-18T02:51:41.717Z,98356.23
2018-06-18T02:52:44.447Z,98360.78
2018-06-18T02:53:47.213Z,98355.08
2018-06-18T02:54:50.272Z,98358.05
2018-06-18T02:55:53.496Z,98357.84
2018-06-18T02:56:56.289Z,98358.28
2018-06-18T02:57:59.815Z,98362.97
2018-06-18T02:59:02.603Z,98367.63
2018-06-18T03:00:06.253Z,98364.89
2018-06-18T03:01:10.520Z,98365.93
2018-06-18T03:02:13.328Z,98362.06
2018-06-18T03:03:17.234Z,98365.95
2018-06-18T03:04:19.984Z,98366.84
2018-06-18T03:05:22.756Z,98366.16
2018-06-18T03:06:25.504Z,98370.81
2018-06-18T03:07:28.556Z,98371.63
2018-06-18T03:08:32.185Z,98372.53
2018-06-18T03:09:34.934Z,98366.25
2018-06-18T03:10:37.715Z,98367.95
2018-06-18T03:11:40.665Z,98364.05
2018-06-18T03:12:43.507Z,98356.21
2018-06-18T03:13:46.541Z,98365.92
2018-06-18T03:14:49.304Z,98364.55
2018-06-18T03:15:52.107Z,98369.67
2018-06-18T03:16:54.865Z,98370.48
2018-06-18T03:17:57.664Z,98362.59
2018-06-18T03:19:05.335Z,98366.81
2018-06-18T03:20:13.419Z,98367.97
2018-06-18T03:21:21.114Z,98365.10
2018-06-18T03:22:28.767Z,98365.58
2018-06-18T03:23:36.313Z,98366.83
2018-06-18T03:24:43.991Z,98362.14
2018-06-18T03:25:51.595Z,98367.40
2018-06-18T03:26:59.619Z,98373.55
2018-06-18T03:28:07.164Z,98377.21
2018-06-18T03:29:16.533Z,98370.58
2018-06-18T03:30:20.325Z,98382.20
2018-06-18T03:31:23.839Z,98372.97
2018-06-18T03:32:26.615Z,98376.38
2018-06-18T03:33:29.712Z,98381.30
2018-06-18T03:34:32.481Z,98379.83
2018-06-18T03:35:35.318Z,98382.34
2018-06-18T03:36:38.053Z,98384.97
2018-06-18T03:37:40.843Z,98382.11
2018-06-18T03:38:43.614Z,98386.58
2018-06-18T03:39:46.784Z,98384.87
2018-06-18T03:40:49.657Z,98387.73
2018-06-18T03:41:52.507Z,98383.41
2018-06-18T03:42:55.310Z,98381.34
2018-06-18T03:44:01.632Z,98384.54
2018-06-18T03:45:04.442Z,98378.37
2018-06-18T03:46:07.762Z,98383.02
2018-06-18T03:47:10.547Z,98379.16
2018-06-18T03:48:13.317Z,98381.79
2018-06-18T03:49:16.114Z,98377.69
2018-06-18T03:50:18.926Z,98379.97
2018-06-18T03:51:21.734Z,98381.58
2018-06-18T03:52:27.970Z,98377.59
2018-06-18T03:53:30.765Z,98374.50
2018-06-18T03:54:34.328Z,98371.30
2018-06-18T03:55:37.134Z,98381.94
2018-06-18T03:56:39.925Z,98375.63
2018-06-18T03:57:42.698Z,98375.06
2018-06-18T03:58:45.901Z,98377.69
2018-06-18T03:59:48.822Z,98375.97
2018-06-18T04:00:56.362Z,98373.12
2018-06-18T04:02:04.037Z,98377.47
2018-06-18T04:03:11.781Z,98374.48
2018-06-18T04:04:19.380Z,98369.72
2018-06-18T04:05:27.397Z,98370.51
2018-06-18T04:06:35.113Z,98374.96
2018-06-18T04:07:42.740Z,98371.30
2018-06-18T04:08:48.488Z,98371.75
2018-06-18T04:09:56.736Z,98374.26
2018-06-18T04:11:04.436Z,98372.00
2018-06-18T04:12:10.263Z,98376.90
2018-06-18T04:13:14.461Z,98376.34
2018-06-18T04:14:17.357Z,98376.90
2018-06-18T04:15:20.104Z,98374.52
2018-06-18T04:16:22.884Z,98375.89
2018-06-18T04:17:25.669Z,98377.83
2018-06-18T04:18:28.748Z,98368.56
2018-06-18T04:19:31.607Z,98373.61
2018-06-18T04:20:34.373Z,98369.70
2018-06-18T04:21:37.115Z,98372.83
2018-06-18T04:22:40.439Z,98366.65
2018-06-18T04:23:44.660Z,98375.22
2018-06-18T04:24:47.763Z,98369.63
2018-06-18T04:25:50.529Z,98373.06
2018-06-18T04:26:53.545Z,98368.02
2018-06-18T04:27:56.423Z,98373.27
2018-06-18T04:28:59.970Z,98370.53
2018-06-18T04:30:02.758Z,98368.72
2018-06-18T04:31:05.872Z,98375.69
2018-06-18T04:32:08.601Z,98368.02
2018-06-18T04:33:11.436Z,98369.72
2018-06-18T04:34:14.290Z,98370.16
2018-06-18T04:35:17.076Z,98373.39
2018-06-18T04:36:19.850Z,98373.86
2018-06-18T04:37:23.800Z,98375.10
2018-06-18T04:38:27.252Z,98373.38
2018-06-18T04:39:30.337Z,98375.88
2018-06-18T04:40:33.086Z,98369.92
2018-06-18T04:41:39.819Z,98374.03
2018-06-18T04:42:47.510Z,98371.77
2018-06-18T04:43:55.585Z,98374.16
2018-06-18T04:45:03.292Z,98380.66
2018-06-18T04:46:10.989Z,98378.14
2018-06-18T04:47:18.645Z,98387.14
2018-06-18T04:48:26.693Z,98379.50
2018-06-18T04:49:34.417Z,98386.83
2018-06-18T04:50:42.554Z,98385.83
2018-06-18T04:51:45.389Z,98383.88
2018-06-18T04:52:48.160Z,98383.56
2018-06-18T04:53:50.956Z,98381.02
2018-06-18T04:54:53.765Z,98382.85
2018-06-18T04:55:56.556Z,98383.20
2018-06-18T04:56:59.857Z,98384.65
2018-06-18T04:58:02.634Z,98381.47
2018-06-18T04:59:08.472Z,98383.63
2018-06-18T05:00:11.263Z,98379.05
2018-06-18T05:01:14.043Z,98381.12
2018-06-18T05:02:16.838Z,98386.97
2018-06-18T05:03:20.068Z,98384.03
2018-06-18T05:04:22.876Z,98379.56
2018-06-18T05:05:25.664Z,98387.55
2018-06-18T05:06:28.446Z,98384.93
2018-06-18T05:07:31.269Z,98382.08
2018-06-18T05:08:34.387Z,98386.07
2018-06-18T05:09:38.870Z,98385.84
2018-06-18T05:10:42.359Z,98390.06
2018-06-18T05:11:45.181Z,98379.77
2018-06-18T05:12:48.015Z,98383.09
2018-06-18T05:13:50.862Z,98388.45
2018-06-18T05:14:53.871Z,98381.24
2018-06-18T05:15:57.015Z,98384.22
2018-06-18T05:17:00.179Z,98380.22
2018-06-18T05:18:02.993Z,98383.16
2018-06-18T05:19:05.889Z,98381.34
2018-06-18T05:20:08.732Z,98381.34
2018-06-18T05:21:11.541Z,98381.66
2018-06-18T05:22:14.729Z,98380.16
2018-06-18T05:23:19.121Z,98387.59
2018-06-18T05:24:21.942Z,98387.25
2018-06-18T05:25:24.759Z,98388.62
2018-06-18T05:26:27.603Z,98378.47
2018-06-18T05:27:30.570Z,98384.52
2018-06-18T05:28:34.438Z,98381.76
2018-06-18T05:29:37.254Z,98383.59
2018-06-18T05:30:46.359Z,98380.97
2018-06-18T05:31:49.657Z,98382.91
2018-06-18T05:32:52.449Z,98384.52
2018-06-18T05:33:55.214Z,98386.48
2018-06-18T05:34:58.311Z,98384.98
2018-06-18T05:36:01.263Z,98391.47
2018-06-18T05:37:04.104Z,98393.19
2018-06-18T05:38:06.853Z,98387.47
2018-06-18T05:39:09.897Z,98388.38
2018-06-18T05:40:15.218Z,98393.31
2018-06-18T05:41:19.736Z,98388.25
2018-06-18T05:42:24.476Z,98388.13
2018-06-18T05:43:27.408Z,98390.39
2018-06-18T05:44:34.641Z,98395.08
2018-06-18T05:45:37.462Z,98391.20
2018-06-18T05:46:40.253Z,98392.80
2018-06-18T05:47:43.529Z,98396.56
2018-06-18T05:48:46.340Z,98395.42
2018-06-18T05:49:49.247Z,98390.84
2018-06-18T05:50:52.212Z,98391.63
2018-06-18T05:51:54.979Z,98394.42
2018-06-18T05:52:58.210Z,98394.62
2018-06-18T05:54:01.647Z,98402.06
2018-06-18T05:55:05.203Z,98401.94
2018-06-18T05:56:09.709Z,98396.80
2018-06-18T05:57:12.489Z,98400.94
2018-06-18T05:58:16.861Z,98397.61
2018-06-18T05:59:19.890Z,98406.80
2018-06-18T06:00:22.834Z,98410.81
2018-06-18T06:01:25.914Z,98417.23
2018-06-18T06:02:28.794Z,98419.62
2018-06-18T06:03:31.814Z,98416.76
2018-06-18T06:04:34.642Z,98416.17
2018-06-18T06:05:37.674Z,98415.73
2018-06-18T06:06:40.432Z,98417.47
2018-06-18T06:07:43.191Z,98417.91
2018-06-18T06:08:46.207Z,98416.30
2018-06-18T06:09:49.153Z,98418.61
2018-06-18T06:10:52.400Z,98422.72
2018-06-18T06:11:56.634Z,98421.34
2018-06-18T06:12:59.415Z,98419.62
2018-06-18T06:14:05.199Z,98418.56
2018-06-18T06:15:07.993Z,98418.31
2018-06-18T06:16:10.824Z,98416.70
2018-06-18T06:17:14.056Z,98422.39
2018-06-18T06:18:16.875Z,98419.19
2018-06-18T06:19:19.632Z,98414.75
2018-06-18T06:20:22.433Z,98420.26
2018-06-18T06:21:25.272Z,98416.50
2018-06-18T06:22:28.064Z,98420.48
2018-06-18T06:23:31.253Z,98416.30
2018-06-18T06:24:34.190Z,98413.31
2018-06-18T06:25:37.109Z,98417.55
2018-06-18T06:26:39.953Z,98421.00
2018-06-18T06:27:42.749Z,98416.28
2018-06-18T06:28:45.569Z,98415.72
2018-06-18T06:29:48.827Z,98416.52
2018-06-18T06:30:52.827Z,98420.09
2018-06-18T06:31:55.861Z,98420.88
2018-06-18T06:32:59.632Z,98416.18
2018-06-18T06:34:02.468Z,98418.00
2018-06-18T06:35:05.241Z,98422.69
2018-06-18T06:36:08.409Z,98420.06
2018-06-18T06:37:11.714Z,98427.39
2018-06-18T06:38:14.758Z,98418.46
2018-06-18T06:39:17.544Z,98426.67
2018-06-18T06:40:20.405Z,98423.64
2018-06-18T06:41:23.183Z,98424.80
2018-06-18T06:42:26.510Z,98426.55
2018-06-18T06:43:29.302Z,98428.61
2018-06-18T06:44:32.066Z,98424.73
2018-06-18T06:45:34.869Z,98425.18
2018-06-18T06:46:38.617Z,98433.29
2018-06-18T06:47:42.994Z,98434.75
2018-06-18T06:48:46.707Z,98424.35
2018-06-18T06:49:49.483Z,98422.24
2018-06-18T06:50:52.314Z,98429.56
2018-06-18T06:51:55.230Z,98438.48
2018-06-18T06:52:58.299Z,98433.94
2018-06-18T06:54:01.086Z,98438.25
2018-06-18T06:55:04.270Z,98438.56
2018-06-18T06:56:10.040Z,98433.86
2018-06-18T06:57:12.862Z,98433.12
2018-06-18T06:58:15.963Z,98429.63
2018-06-18T06:59:18.780Z,98433.13
2018-06-18T07:00:23.108Z,98432.05
2018-06-18T07:01:25.960Z,98435.27
2018-06-18T07:02:28.771Z,98432.91
2018-06-18T07:03:31.561Z,98428.86
2018-06-18T07:04:34.328Z,98438.78
2018-06-18T07:05:37.414Z,98437.12
2018-06-18T07:06:40.512Z,98443.81
2018-06-18T07:07:43.365Z,98434.36
2018-06-18T07:08:47.181Z,98438.13
2018-06-18T07:09:49.977Z,98442.91
2018-06-18T07:10:52.843Z,98435.74
2018-06-18T07:11:55.722Z,98436.03
2018-06-18T07:12:59.244Z,98433.06
2018-06-18T07:14:02.046Z,98434.62
2018-06-18T07:15:04.845Z,98435.75
2018-06-18T07:16:08.532Z,98428.65
2018-06-18T07:17:12.171Z,98422.95
2018-06-18T07:18:17.366Z,98432.53
2018-06-18T07:19:20.141Z,98430.84
2018-06-18T07:20:23.589Z,98433.19
2018-06-18T07:21:28.770Z,98431.17
2018-06-18T07:22:32.535Z,98424.78
2018-06-18T07:23:35.330Z,98433.63
2018-06-18T07:24:38.542Z,98427.04
2018-06-18T07:25:41.346Z,98432.27
2018-06-18T07:26:44.141Z,98431.02
2018-06-18T07:27:46.912Z,98437.08
2018-06-18T07:28:49.804Z,98433.48
2018-06-18T07:29:53.233Z,98432.27
2018-06-18T07:30:56.591Z,98437.50
2018-06-18T07:31:59.404Z,98437.64
2018-06-18T07:33:02.378Z,98437.36
2018-06-18T07:34:05.794Z,98435.90
2018-06-18T07:35:08.623Z,98440.66
2018-06-18T07:36:12.930Z,98429.67
2018-06-18T07:37:16.068Z,98437.27
2018-06-18T07:38:18.883Z,98429.08
2018-06-18T07:39:21.683Z,98413.64
2018-06-18T07:40:24.572Z,98410.81
2018-06-18T07:41:28.367Z,98432.16
2018-06-18T07:42:31.781Z,98427.66
2018-06-18T07:43:37.649Z,98425.47
2018-06-18T07:44:41.060Z,98437.84
2018-06-18T07:45:43.862Z,98415.33
2018-06-18T07:46:46.750Z,98426.20
2018-06-18T07:47:49.956Z,98429.97
2018-06-18T07:48:52.761Z,98415.13
2018-06-18T07:49:56.036Z,98425.72
2018-06-18T07:50:58.855Z,98425.00
2018-06-18T07:52:01.727Z,98430.39
2018-06-18T07:53:04.580Z,98434.81
2018-06-18T07:54:08.206Z,98436.34
2018-06-18T07:55:12.138Z,98425.09
2018-06-18T07:56:16.080Z,98443.06
2018-06-18T07:57:19.699Z,98431.02
2018-06-18T07:58:23.082Z,98430.66
2018-06-18T07:59:25.919Z,98426.91
2018-06-18T08:00:28.721Z,98430.03
2018-06-18T08:01:31.838Z,98426.55
2018-06-18T08:02:34.614Z,98424.61
2018-06-18T08:03:37.705Z,98431.95
2018-06-18T08:04:45.269Z,98434.84
2018-06-18T08:05:48.059Z,98429.50
2018-06-18T08:06:50.856Z,98427.75
2018-06-18T08:07:55.088Z,98425.67
2018-06-18T08:08:57.869Z,98420.11
2018-06-18T08:10:00.776Z,98428.22
2018-06-18T08:11:04.236Z,98426.40
2018-06-18T08:12:06.988Z,98423.37
2018-06-18T08:13:09.801Z,98421.48
2018-06-18T08:14:13.077Z,98425.02
2018-06-18T08:15:15.939Z,98415.61
2018-06-18T08:16:18.797Z,98419.14
2018-06-18T08:17:22.615Z,98412.17
2018-06-18T08:18:25.489Z,98418.21
2018-06-18T08:19:28.255Z,98417.77
2018-06-18T08:20:34.770Z,98406.15
2018-06-18T08:21:37.725Z,98413.48
2018-06-18T08:22:41.486Z,98403.89
2018-06-18T08:23:44.325Z,98412.73
2018-06-18T08:24:47.266Z,98414.20
2018-06-18T08:25:50.034Z,98414.72
2018-06-18T08:26:53.194Z,98404.36
2018-06-18T08:27:57.929Z,98425.84
2018-06-18T08:29:00.723Z,98427.98
2018-06-18T08:30:03.620Z,98425.73
2018-06-18T08:31:06.697Z,98426.60
2018-06-18T08:32:10.517Z,98428.19
2018-06-18T08:33:13.340Z,98428.05
2018-06-18T08:34:16.220Z,98409.88
2018-06-18T08:35:21.643Z,98423.92
2018-06-18T08:36:24.471Z,98431.09
2018-06-18T08:37:27.291Z,98430.45
2018-06-18T08:38:30.625Z,98423.09
2018-06-18T08:39:34.591Z,98422.49
2018-06-18T08:40:37.419Z,98420.67
2018-06-18T08:41:41.103Z,98418.14
2018-06-18T08:42:43.890Z,98432.50
2018-06-18T08:43:46.795Z,98436.33
2018-06-18T08:44:52.618Z,98437.88
2018-06-18T08:45:55.724Z,98410.88
2018-06-18T08:46:58.841Z,98439.80
2018-06-18T08:48:01.631Z,98434.92
2018-06-18T08:49:07.057Z,98441.59
2018-06-18T08:50:15.767Z,98446.91
2018-06-18T08:51:24.208Z,98426.94
2018-06-18T08:52:31.903Z,98422.13
2018-06-18T08:53:39.505Z,98445.20
2018-06-18T08:54:47.240Z,98439.52
2018-06-18T08:55:54.932Z,98445.84
2018-06-18T08:57:02.787Z,98446.88
2018-06-18T08:58:10.679Z,98440.63
2018-06-18T08:59:19.887Z,98444.52
2018-06-18T09:00:27.500Z,98446.77
2018-06-18T09:01:33.473Z,98450.80
2018-06-18T09:02:36.466Z,98445.56
2018-06-18T09:03:46.023Z,98447.10
2018-06-18T09:04:54.622Z,98448.00
2018-06-18T09:06:03.493Z,98461.30
2018-06-18T09:07:16.204Z,98461.69
2018-06-18T09:08:28.129Z,98458.19
2018-06-18T09:09:31.130Z,98462.80
2018-06-18T09:10:34.921Z,98470.31
2018-06-18T09:11:38.435Z,98469.45
2018-06-18T09:12:41.181Z,98469.19
2018-06-18T09:13:44.620Z,98476.70
2018-06-18T09:14:47.847Z,98469.30
2018-06-18T09:15:51.839Z,98467.18
2018-06-18T09:16:54.603Z,98468.81
2018-06-18T09:17:58.320Z,98469.17
2018-06-18T09:19:02.283Z,98466.70
2018-06-18T09:20:05.089Z,98470.47
2018-06-18T09:21:09.609Z,98470.75
2018-06-18T09:22:12.672Z,98463.85
2018-06-18T09:23:16.421Z,98467.58
2018-06-18T09:24:19.400Z,98464.90
2018-06-18T09:25:22.782Z,98460.69
2018-06-18T09:26:25.701Z,98462.95
2018-06-18T09:27:29.720Z,98453.58
2018-06-18T09:28:33.805Z,98458.09
2018-06-18T09:29:38.543Z,98433.22
2018-06-18T09:30:41.359Z,98457.01
2018-06-18T09:31:50.179Z,98454.55
2018-06-18T09:32:52.991Z,98460.11
2018-06-18T09:33:55.772Z,98456.56
2018-06-18T09:35:00.201Z,98447.17
2018-06-18T09:36:03.829Z,98460.02
2018-06-18T09:37:08.212Z,98453.88
2018-06-18T09:38:11.368Z,98448.48
2018-06-18T09:39:16.125Z,98459.39
2018-06-18T09:40:18.929Z,98451.98
2018-06-18T09:41:21.718Z,98445.95
2018-06-18T09:42:24.546Z,98447.48
2018-06-18T09:43:28.204Z,98447.41
2018-06-18T09:44:32.015Z,98456.53
2018-06-18T09:45:36.688Z,98461.22
2018-06-18T09:46:40.390Z,98461.03
2018-06-18T09:47:43.162Z,98460.40
2018-06-18T09:48:50.850Z,98460.39
2018-06-18T09:49:58.429Z,98475.41
2018-06-18T09:51:07.561Z,98493.86
2018-06-18T09:52:15.138Z,98469.26
2018-06-18T09:53:23.595Z,98456.81
2018-06-18T09:56:33.744Z,98462.08
2018-06-18T09:57:41.801Z,98482.29
2018-06-18T09:58:50.088Z,98465.71
2018-06-18T09:59:57.817Z,98472.78
2018-06-18T10:01:03.111Z,98476.47
2018-06-18T10:02:06.952Z,98478.17
2018-06-18T10:03:14.123Z,98470.75
2018-06-18T10:04:19.099Z,98466.66
2018-06-18T10:05:21.893Z,98465.17
2018-06-18T10:06:27.076Z,98460.69
2018-06-18T10:07:31.054Z,98464.83
2018-06-18T10:08:33.928Z,98457.60
2018-06-18T10:09:37.194Z,98451.76
2018-06-18T10:10:40.061Z,98461.05
2018-06-18T10:11:42.850Z,98469.52
2018-06-18T10:12:45.718Z,98461.66
2018-06-18T10:13:48.559Z,98470.56
2018-06-18T10:14:51.361Z,98469.34
2018-06-18T10:15:54.628Z,98473.90
2018-06-18T10:16:58.717Z,98473.59
2018-06-18T10:18:02.184Z,98466.19
2018-06-18T10:19:04.982Z,98477.45
2018-06-18T10:20:07.777Z,98463.96
2018-06-18T10:21:11.874Z,98464.97
2018-06-18T10:22:15.176Z,98460.43
2018-06-18T10:23:17.969Z,98464.33
2018-06-18T10:24:21.159Z,98468.17
2018-06-18T10:25:24.916Z,98467.80
2018-06-18T10:26:27.705Z,98458.95
2018-06-18T10:27:30.522Z,98452.80
2018-06-18T10:28:34.474Z,98455.59
2018-06-18T10:29:37.304Z,98459.98
2018-06-18T10:30:41.961Z,98456.47
2018-06-18T10:31:44.814Z,98470.05
2018-06-18T10:32:52.421Z,98464.62
2018-06-18T10:34:00.279Z,98458.95
2018-06-18T10:35:07.980Z,98466.08
2018-06-18T10:36:15.793Z,98463.13
2018-06-18T10:37:24.078Z,98457.61
2018-06-18T10:38:31.805Z,98462.34
2018-06-18T10:39:39.486Z,98453.08
2018-06-18T10:40:47.595Z,98457.45
2018-06-18T10:42:00.617Z,98469.39
2018-06-18T10:43:08.304Z,98462.37
2018-06-18T10:44:11.099Z,98453.33
2018-06-18T10:45:13.875Z,98451.68
2018-06-18T10:46:18.099Z,98445.34
2018-06-18T10:47:21.267Z,98453.67
2018-06-18T10:48:24.565Z,98455.25
2018-06-18T10:49:31.905Z,98456.44
2018-06-18T10:50:35.555Z,98456.22
2018-06-18T10:51:38.410Z,98456.13
2018-06-18T10:52:41.237Z,98443.78
2018-06-18T10:53:44.871Z,98445.55
2018-06-18T10:54:48.677Z,98447.52
2018-06-18T10:55:51.455Z,98445.14
2018-06-18T10:56:55.468Z,98453.68
2018-06-18T10:57:58.273Z,98454.41
2018-06-18T10:59:02.701Z,98462.59
2018-06-18T11:00:10.630Z,98460.60
2018-06-18T11:01:15.568Z,98459.98
2018-06-18T11:02:21.283Z,98447.51
2018-06-18T11:03:25.430Z,98452.33
2018-06-18T11:04:38.259Z,98469.80
2018-06-18T11:05:48.919Z,98459.86
2018-06-18T11:06:55.367Z,98456.59
2018-06-18T11:07:59.852Z,98461.40
2018-06-18T11:09:04.530Z,98454.28
2018-06-18T11:10:10.746Z,98448.03
2018-06-18T11:11:18.240Z,98446.24
2018-06-18T11:12:22.071Z,98451.38
2018-06-18T11:13:27.946Z,98448.21
2018-06-18T11:14:30.821Z,98465.95
2018-06-18T11:15:40.325Z,98459.98
2018-06-18T11:16:46.840Z,98463.13
2018-06-18T11:17:54.652Z,98460.25
2018-06-18T11:19:06.799Z,98456.38
2018-06-18T11:20:14.407Z,98452.52
2018-06-18T11:21:22.207Z,98446.33
2018-06-18T11:22:29.719Z,98439.85
2018-06-18T11:23:37.408Z,98448.30
2018-06-18T11:24:45.707Z,98452.91
2018-06-18T11:25:53.992Z,98445.82
2018-06-18T11:26:57.904Z,98463.78
2018-06-18T11:28:02.344Z,98453.45
2018-06-18T11:29:06.131Z,98461.24
2018-06-18T11:30:16.539Z,98460.64
2018-06-18T11:31:25.453Z,98456.16
2018-06-18T11:32:29.136Z,98455.19
2018-06-18T11:33:34.078Z,98456.22
2018-06-18T11:34:37.977Z,98459.34
2018-06-18T11:35:42.296Z,98463.50
2018-06-18T11:36:45.937Z,98437.13
2018-06-18T11:37:49.360Z,98460.41
2018-06-18T11:38:52.229Z,98457.34
2018-06-18T11:39:55.618Z,98460.09
2018-06-18T11:40:58.706Z,98459.43
2018-06-18T11:42:03.377Z,98447.55
2018-06-18T11:43:06.145Z,98453.45
2018-06-18T11:44:09.272Z,98447.70
2018-06-18T11:45:12.204Z,98462.34
2018-06-18T11:46:18.169Z,98464.22
2018-06-18T11:47:22.201Z,98469.13
2018-06-18T11:48:25.935Z,98452.83
2018-06-18T11:49:28.737Z,98465.98
2018-06-18T11:50:33.749Z,98455.17
2018-06-18T11:51:36.547Z,98454.95
2018-06-18T11:52:39.367Z,98453.08
2018-06-18T11:53:42.776Z,98458.11
2018-06-18T11:54:45.608Z,98469.66
2018-06-18T11:55:50.377Z,98463.78
2018-06-18T11:56:54.575Z,98455.28
2018-06-18T11:57:57.669Z,98444.38
2018-06-18T11:59:06.187Z,98457.33
2018-06-18T12:00:13.917Z,98454.47
2018-06-18T12:01:22.414Z,98461.66
2018-06-18T12:02:30.403Z,98456.63
2018-06-18T12:03:38.134Z,98456.20
2018-06-18T12:04:45.884Z,98455.22
2018-06-18T12:07:59.928Z,98447.50
2018-06-18T12:09:08.563Z,98454.95
2018-06-18T12:10:12.188Z,98456.66
2018-06-18T12:11:16.606Z,98444.23
2018-06-18T12:12:19.419Z,98456.49
2018-06-18T12:13:22.957Z,98460.97
2018-06-18T12:14:30.707Z,98457.55
2018-06-18T12:15:33.544Z,98451.79
2018-06-18T12:16:38.218Z,98463.95
2018-06-18T12:17:41.800Z,98459.88
2018-06-18T12:18:44.800Z,98458.53
2018-06-18T12:19:48.462Z,98472.14
2018-06-18T12:20:52.730Z,98450.19
2018-06-18T12:21:56.662Z,98452.92
2018-06-18T12:23:00.781Z,98462.64
2018-06-18T12:24:04.381Z,98457.93
2018-06-18T12:25:08.799Z,98460.58
2018-06-18T12:26:13.601Z,98466.10
2018-06-18T12:27:18.392Z,98457.04
2018-06-18T12:28:23.216Z,98454.12
2018-06-18T12:29:27.324Z,98444.89
2018-06-18T12:30:30.698Z,98440.30
2018-06-18T12:31:33.535Z,98445.38
2018-06-18T12:32:37.877Z,98460.62
2018-06-18T12:33:42.099Z,98449.17
2018-06-18T12:34:44.904Z,98443.82
2018-06-18T12:37:04.800Z,98461.93